sensor_id;sensor_type;location;lat;lon;timestamp;P1;durP1;ratioP1;P2;durP2;ratioP2
67751;SDS011;54551;51.068;5.826;2023-04-25T00:01:40;16.47;;;6.80;;
67751;SDS011;54551;51.068;5.826;2023-04-25T00:04:06;19.33;;;6.43;;
67751;SDS011;54551;51.068;5.826;2023-04-25T00:06:34;15.47;;;6.47;;
67751;SDS011;54551;51.068;5.826;2023-04-25T00:09:02;15.37;;;6.80;;
67751;SDS011;54551;51.068;5.826;2023-04-25T00:11:33;16.00;;;6.57;;
67751;SDS011;54551;51.068;5.826;2023-04-25T00:13:59;17.53;;;6.77;;
67751;SDS011;54551;51.068;5.826;2023-04-25T00:16:27;13.40;;;6.47;;
67751;SDS011;54551;51.068;5.826;2023-04-25T00:18:54;15.23;;;6.70;;
67751;SDS011;54551;51.068;5.826;2023-04-25T00:21:20;13.30;;;6.53;;
67751;SDS011;54551;51.068;5.826;2023-04-25T00:23:49;14.13;;;6.63;;
67751;SDS011;54551;51.068;5.826;2023-04-25T00:26:15;14.40;;;6.30;;
67751;SDS011;54551;51.068;5.826;2023-04-25T00:28:41;15.37;;;6.80;;
67751;SDS011;54551;51.068;5.826;2023-04-25T00:31:07;20.73;;;7.30;;
67751;SDS011;54551;51.068;5.826;2023-04-25T00:33:33;10.97;;;6.17;;
67751;SDS011;54551;51.068;5.826;2023-04-25T00:36:00;16.00;;;6.67;;
67751;SDS011;54551;51.068;5.826;2023-04-25T00:38:26;13.97;;;7.17;;
67751;SDS011;54551;51.068;5.826;2023-04-25T00:40:52;13.20;;;6.13;;
67751;SDS011;54551;51.068;5.826;2023-04-25T00:43:18;13.60;;;6.90;;
67751;SDS011;54551;51.068;5.826;2023-04-25T00:45:44;15.83;;;6.27;;
67751;SDS011;54551;51.068;5.826;2023-04-25T00:48:14;18.97;;;6.67;;
67751;SDS011;54551;51.068;5.826;2023-04-25T00:50:40;13.83;;;6.87;;
67751;SDS011;54551;51.068;5.826;2023-04-25T00:53:07;16.03;;;7.50;;
67751;SDS011;54551;51.068;5.826;2023-04-25T00:55:35;12.80;;;6.60;;
67751;SDS011;54551;51.068;5.826;2023-04-25T00:58:01;13.60;;;6.53;;
67751;SDS011;54551;51.068;5.826;2023-04-25T01:00:27;12.73;;;6.77;;
67751;SDS011;54551;51.068;5.826;2023-04-25T01:02:54;14.90;;;7.30;;
67751;SDS011;54551;51.068;5.826;2023-04-25T01:05:20;18.93;;;7.90;;
67751;SDS011;54551;51.068;5.826;2023-04-25T01:07:46;13.20;;;6.80;;
67751;SDS011;54551;51.068;5.826;2023-04-25T01:10:12;17.03;;;6.83;;
67751;SDS011;54551;51.068;5.826;2023-04-25T01:12:38;15.90;;;7.33;;
67751;SDS011;54551;51.068;5.826;2023-04-25T01:15:04;14.20;;;6.60;;
67751;SDS011;54551;51.068;5.826;2023-04-25T01:17:31;17.67;;;7.20;;
67751;SDS011;54551;51.068;5.826;2023-04-25T01:19:59;12.90;;;6.93;;
67751;SDS011;54551;51.068;5.826;2023-04-25T01:22:28;23.63;;;7.20;;
67751;SDS011;54551;51.068;5.826;2023-04-25T01:24:54;16.63;;;7.47;;
67751;SDS011;54551;51.068;5.826;2023-04-25T01:27:21;16.87;;;7.57;;
67751;SDS011;54551;51.068;5.826;2023-04-25T01:29:48;15.97;;;7.17;;
67751;SDS011;54551;51.068;5.826;2023-04-25T01:32:15;14.57;;;6.80;;
67751;SDS011;54551;51.068;5.826;2023-04-25T01:34:41;13.53;;;6.73;;
67751;SDS011;54551;51.068;5.826;2023-04-25T01:37:07;15.73;;;7.03;;
67751;SDS011;54551;51.068;5.826;2023-04-25T01:39:33;17.87;;;7.10;;
67751;SDS011;54551;51.068;5.826;2023-04-25T01:41:59;15.03;;;6.67;;
67751;SDS011;54551;51.068;5.826;2023-04-25T01:44:26;15.37;;;8.43;;
67751;SDS011;54551;51.068;5.826;2023-04-25T01:46:52;16.50;;;6.97;;
67751;SDS011;54551;51.068;5.826;2023-04-25T01:49:18;18.33;;;7.57;;
67751;SDS011;54551;51.068;5.826;2023-04-25T01:51:45;17.70;;;7.63;;
67751;SDS011;54551;51.068;5.826;2023-04-25T01:54:11;15.43;;;7.80;;
67751;SDS011;54551;51.068;5.826;2023-04-25T01:56:38;12.60;;;6.87;;
67751;SDS011;54551;51.068;5.826;2023-04-25T01:59:08;15.97;;;7.90;;
67751;SDS011;54551;51.068;5.826;2023-04-25T02:02:12;15.67;;;7.33;;
67751;SDS011;54551;51.068;5.826;2023-04-25T02:04:38;16.93;;;7.40;;
67751;SDS011;54551;51.068;5.826;2023-04-25T02:07:04;15.47;;;7.40;;
67751;SDS011;54551;51.068;5.826;2023-04-25T02:09:44;24.17;;;8.03;;
67751;SDS011;54551;51.068;5.826;2023-04-25T02:12:11;17.17;;;7.97;;
67751;SDS011;54551;51.068;5.826;2023-04-25T02:14:59;14.93;;;7.37;;
67751;SDS011;54551;51.068;5.826;2023-04-25T02:17:35;18.33;;;8.60;;
67751;SDS011;54551;51.068;5.826;2023-04-25T02:20:01;20.53;;;7.67;;
67751;SDS011;54551;51.068;5.826;2023-04-25T02:22:28;17.93;;;7.77;;
67751;SDS011;54551;51.068;5.826;2023-04-25T02:24:55;16.23;;;9.03;;
67751;SDS011;54551;51.068;5.826;2023-04-25T02:27:21;14.93;;;7.77;;
67751;SDS011;54551;51.068;5.826;2023-04-25T02:29:47;16.80;;;8.33;;
67751;SDS011;54551;51.068;5.826;2023-04-25T02:32:13;12.13;;;7.77;;
67751;SDS011;54551;51.068;5.826;2023-04-25T02:34:39;15.27;;;8.10;;
67751;SDS011;54551;51.068;5.826;2023-04-25T02:37:05;15.90;;;8.23;;
67751;SDS011;54551;51.068;5.826;2023-04-25T02:39:31;20.90;;;8.77;;
67751;SDS011;54551;51.068;5.826;2023-04-25T02:41:57;14.37;;;7.87;;
67751;SDS011;54551;51.068;5.826;2023-04-25T02:44:23;18.03;;;8.90;;
67751;SDS011;54551;51.068;5.826;2023-04-25T02:46:48;16.23;;;9.10;;
67751;SDS011;54551;51.068;5.826;2023-04-25T02:49:14;19.97;;;9.07;;
67751;SDS011;54551;51.068;5.826;2023-04-25T02:51:40;17.80;;;9.37;;
67751;SDS011;54551;51.068;5.826;2023-04-25T02:54:07;14.20;;;8.53;;
67751;SDS011;54551;51.068;5.826;2023-04-25T02:56:37;15.23;;;7.87;;
67751;SDS011;54551;51.068;5.826;2023-04-25T02:59:07;16.50;;;8.17;;
67751;SDS011;54551;51.068;5.826;2023-04-25T03:01:34;18.43;;;8.60;;
67751;SDS011;54551;51.068;5.826;2023-04-25T03:04:00;20.23;;;8.80;;
67751;SDS011;54551;51.068;5.826;2023-04-25T03:06:26;16.00;;;8.37;;
67751;SDS011;54551;51.068;5.826;2023-04-25T03:08:51;18.80;;;8.80;;
67751;SDS011;54551;51.068;5.826;2023-04-25T03:11:17;20.17;;;8.70;;
67751;SDS011;54551;51.068;5.826;2023-04-25T03:13:45;18.60;;;8.83;;
67751;SDS011;54551;51.068;5.826;2023-04-25T03:16:11;15.63;;;8.00;;
67751;SDS011;54551;51.068;5.826;2023-04-25T03:18:37;16.93;;;8.30;;
67751;SDS011;54551;51.068;5.826;2023-04-25T03:21:03;19.53;;;8.87;;
67751;SDS011;54551;51.068;5.826;2023-04-25T03:23:30;18.30;;;8.70;;
67751;SDS011;54551;51.068;5.826;2023-04-25T03:25:56;18.23;;;9.07;;
67751;SDS011;54551;51.068;5.826;2023-04-25T03:28:22;17.47;;;9.47;;
67751;SDS011;54551;51.068;5.826;2023-04-25T03:30:48;19.17;;;9.10;;
67751;SDS011;54551;51.068;5.826;2023-04-25T03:33:13;20.83;;;9.73;;
67751;SDS011;54551;51.068;5.826;2023-04-25T03:35:39;14.47;;;9.23;;
67751;SDS011;54551;51.068;5.826;2023-04-25T03:38:06;17.93;;;8.93;;
67751;SDS011;54551;51.068;5.826;2023-04-25T03:40:37;22.23;;;9.57;;
67751;SDS011;54551;51.068;5.826;2023-04-25T03:43:13;16.17;;;8.97;;
67751;SDS011;54551;51.068;5.826;2023-04-25T03:45:48;20.60;;;9.07;;
67751;SDS011;54551;51.068;5.826;2023-04-25T03:48:15;17.73;;;9.47;;
67751;SDS011;54551;51.068;5.826;2023-04-25T03:50:42;16.23;;;9.37;;
67751;SDS011;54551;51.068;5.826;2023-04-25T03:53:07;19.50;;;9.57;;
67751;SDS011;54551;51.068;5.826;2023-04-25T03:55:53;15.10;;;8.93;;
67751;SDS011;54551;51.068;5.826;2023-04-25T03:58:19;22.13;;;9.80;;
67751;SDS011;54551;51.068;5.826;2023-04-25T04:00:45;19.70;;;9.33;;
67751;SDS011;54551;51.068;5.826;2023-04-25T04:03:11;17.27;;;9.03;;
67751;SDS011;54551;51.068;5.826;2023-04-25T04:05:37;20.37;;;9.87;;
67751;SDS011;54551;51.068;5.826;2023-04-25T04:08:06;22.50;;;9.43;;
67751;SDS011;54551;51.068;5.826;2023-04-25T04:10:32;17.30;;;9.30;;
67751;SDS011;54551;51.068;5.826;2023-04-25T04:12:58;17.93;;;8.93;;
67751;SDS011;54551;51.068;5.826;2023-04-25T04:15:24;18.10;;;9.13;;
67751;SDS011;54551;51.068;5.826;2023-04-25T04:17:50;20.50;;;9.47;;
67751;SDS011;54551;51.068;5.826;2023-04-25T04:20:17;18.73;;;10.00;;
67751;SDS011;54551;51.068;5.826;2023-04-25T04:22:43;19.40;;;9.50;;
67751;SDS011;54551;51.068;5.826;2023-04-25T04:25:11;17.70;;;9.77;;
67751;SDS011;54551;51.068;5.826;2023-04-25T04:27:56;22.20;;;9.87;;
67751;SDS011;54551;51.068;5.826;2023-04-25T04:30:29;20.43;;;9.57;;
67751;SDS011;54551;51.068;5.826;2023-04-25T04:32:58;21.70;;;9.93;;
67751;SDS011;54551;51.068;5.826;2023-04-25T04:35:26;16.90;;;8.73;;
67751;SDS011;54551;51.068;5.826;2023-04-25T04:37:52;22.83;;;9.33;;
67751;SDS011;54551;51.068;5.826;2023-04-25T04:40:20;20.07;;;8.53;;
67751;SDS011;54551;51.068;5.826;2023-04-25T04:43:02;17.77;;;7.90;;
67751;SDS011;54551;51.068;5.826;2023-04-25T04:45:54;21.30;;;8.57;;
67751;SDS011;54551;51.068;5.826;2023-04-25T04:48:21;20.70;;;8.90;;
67751;SDS011;54551;51.068;5.826;2023-04-25T04:51:14;24.20;;;9.13;;
67751;SDS011;54551;51.068;5.826;2023-04-25T04:54:10;16.00;;;7.33;;
67751;SDS011;54551;51.068;5.826;2023-04-25T04:57:11;16.30;;;7.33;;
67751;SDS011;54551;51.068;5.826;2023-04-25T04:59:53;16.10;;;7.40;;
67751;SDS011;54551;51.068;5.826;2023-04-25T05:02:51;21.10;;;8.53;;
67751;SDS011;54551;51.068;5.826;2023-04-25T05:05:28;21.17;;;8.80;;
67751;SDS011;54551;51.068;5.826;2023-04-25T05:07:57;17.17;;;7.70;;
67751;SDS011;54551;51.068;5.826;2023-04-25T05:10:49;14.07;;;7.73;;
67751;SDS011;54551;51.068;5.826;2023-04-25T05:13:37;23.17;;;8.63;;
67751;SDS011;54551;51.068;5.826;2023-04-25T05:16:23;14.63;;;7.07;;
67751;SDS011;54551;51.068;5.826;2023-04-25T05:18:57;18.43;;;8.40;;
67751;SDS011;54551;51.068;5.826;2023-04-25T05:21:31;18.03;;;7.33;;
67751;SDS011;54551;51.068;5.826;2023-04-25T05:24:26;17.13;;;7.63;;
67751;SDS011;54551;51.068;5.826;2023-04-25T05:27:11;15.47;;;6.43;;
67751;SDS011;54551;51.068;5.826;2023-04-25T05:30:04;14.63;;;7.50;;
67751;SDS011;54551;51.068;5.826;2023-04-25T05:32:45;15.10;;;6.47;;
67751;SDS011;54551;51.068;5.826;2023-04-25T05:35:12;14.93;;;6.60;;
67751;SDS011;54551;51.068;5.826;2023-04-25T05:37:43;16.43;;;7.37;;
67751;SDS011;54551;51.068;5.826;2023-04-25T05:40:12;17.07;;;6.77;;
67751;SDS011;54551;51.068;5.826;2023-04-25T05:43:01;15.67;;;6.77;;
67751;SDS011;54551;51.068;5.826;2023-04-25T05:45:41;18.03;;;6.73;;
67751;SDS011;54551;51.068;5.826;2023-04-25T05:48:27;18.83;;;6.40;;
67751;SDS011;54551;51.068;5.826;2023-04-25T05:51:00;17.57;;;7.13;;
67751;SDS011;54551;51.068;5.826;2023-04-25T05:53:44;16.80;;;7.53;;
67751;SDS011;54551;51.068;5.826;2023-04-25T05:56:12;26.13;;;7.60;;
67751;SDS011;54551;51.068;5.826;2023-04-25T05:58:39;19.90;;;7.30;;
67751;SDS011;54551;51.068;5.826;2023-04-25T06:01:06;16.03;;;6.87;;
67751;SDS011;54551;51.068;5.826;2023-04-25T06:03:32;15.50;;;6.80;;
67751;SDS011;54551;51.068;5.826;2023-04-25T06:05:58;19.77;;;6.20;;
67751;SDS011;54551;51.068;5.826;2023-04-25T06:08:25;17.13;;;7.20;;
67751;SDS011;54551;51.068;5.826;2023-04-25T06:10:51;20.67;;;7.30;;
67751;SDS011;54551;51.068;5.826;2023-04-25T06:13:17;18.73;;;7.70;;
67751;SDS011;54551;51.068;5.826;2023-04-25T06:15:43;18.17;;;7.33;;
67751;SDS011;54551;51.068;5.826;2023-04-25T06:18:10;24.33;;;7.17;;
67751;SDS011;54551;51.068;5.826;2023-04-25T06:20:36;16.10;;;6.60;;
67751;SDS011;54551;51.068;5.826;2023-04-25T06:23:02;19.23;;;7.60;;
67751;SDS011;54551;51.068;5.826;2023-04-25T06:25:38;13.93;;;6.13;;
67751;SDS011;54551;51.068;5.826;2023-04-25T06:28:04;18.20;;;7.77;;
67751;SDS011;54551;51.068;5.826;2023-04-25T06:30:31;16.50;;;6.80;;
67751;SDS011;54551;51.068;5.826;2023-04-25T06:33:02;18.17;;;6.67;;
67751;SDS011;54551;51.068;5.826;2023-04-25T06:35:29;11.43;;;6.10;;
67751;SDS011;54551;51.068;5.826;2023-04-25T06:37:55;17.37;;;6.70;;
67751;SDS011;54551;51.068;5.826;2023-04-25T06:40:22;13.30;;;6.00;;
67751;SDS011;54551;51.068;5.826;2023-04-25T06:42:48;12.53;;;6.23;;
67751;SDS011;54551;51.068;5.826;2023-04-25T06:45:50;11.80;;;5.63;;
67751;SDS011;54551;51.068;5.826;2023-04-25T06:48:16;14.53;;;5.83;;
67751;SDS011;54551;51.068;5.826;2023-04-25T06:50:43;18.07;;;5.50;;
67751;SDS011;54551;51.068;5.826;2023-04-25T06:53:09;11.27;;;5.07;;
67751;SDS011;54551;51.068;5.826;2023-04-25T06:55:37;11.27;;;5.00;;
67751;SDS011;54551;51.068;5.826;2023-04-25T06:58:18;10.03;;;5.10;;
67751;SDS011;54551;51.068;5.826;2023-04-25T07:01:09;13.90;;;5.27;;
67751;SDS011;54551;51.068;5.826;2023-04-25T07:03:36;14.30;;;4.90;;
67751;SDS011;54551;51.068;5.826;2023-04-25T07:06:07;15.23;;;5.10;;
67751;SDS011;54551;51.068;5.826;2023-04-25T07:08:33;12.43;;;4.37;;
67751;SDS011;54551;51.068;5.826;2023-04-25T07:10:58;13.70;;;4.37;;
67751;SDS011;54551;51.068;5.826;2023-04-25T07:13:24;15.07;;;4.27;;
67751;SDS011;54551;51.068;5.826;2023-04-25T07:15:50;14.53;;;3.97;;
67751;SDS011;54551;51.068;5.826;2023-04-25T07:18:18;11.20;;;3.73;;
67751;SDS011;54551;51.068;5.826;2023-04-25T07:20:45;14.87;;;4.10;;
67751;SDS011;54551;51.068;5.826;2023-04-25T07:23:11;12.70;;;4.33;;
67751;SDS011;54551;51.068;5.826;2023-04-25T07:25:38;13.63;;;3.60;;
67751;SDS011;54551;51.068;5.826;2023-04-25T07:28:04;10.47;;;4.17;;
67751;SDS011;54551;51.068;5.826;2023-04-25T07:30:30;11.23;;;3.50;;
67751;SDS011;54551;51.068;5.826;2023-04-25T07:32:56;11.40;;;3.23;;
67751;SDS011;54551;51.068;5.826;2023-04-25T07:35:22;11.67;;;3.67;;
67751;SDS011;54551;51.068;5.826;2023-04-25T07:37:48;13.00;;;3.87;;
67751;SDS011;54551;51.068;5.826;2023-04-25T07:40:17;13.50;;;3.70;;
67751;SDS011;54551;51.068;5.826;2023-04-25T07:42:47;10.10;;;3.33;;
67751;SDS011;54551;51.068;5.826;2023-04-25T07:45:17;12.07;;;3.90;;
67751;SDS011;54551;51.068;5.826;2023-04-25T07:47:43;13.70;;;3.70;;
67751;SDS011;54551;51.068;5.826;2023-04-25T07:50:10;8.83;;;3.80;;
67751;SDS011;54551;51.068;5.826;2023-04-25T07:52:37;10.90;;;3.97;;
67751;SDS011;54551;51.068;5.826;2023-04-25T07:55:12;15.63;;;3.63;;
67751;SDS011;54551;51.068;5.826;2023-04-25T07:57:53;8.73;;;3.83;;
67751;SDS011;54551;51.068;5.826;2023-04-25T08:00:19;13.30;;;4.23;;
67751;SDS011;54551;51.068;5.826;2023-04-25T08:02:52;14.30;;;4.27;;
67751;SDS011;54551;51.068;5.826;2023-04-25T08:05:19;10.87;;;4.33;;
67751;SDS011;54551;51.068;5.826;2023-04-25T08:07:50;16.03;;;4.33;;
67751;SDS011;54551;51.068;5.826;2023-04-25T08:10:16;12.87;;;3.93;;
67751;SDS011;54551;51.068;5.826;2023-04-25T08:12:42;11.37;;;4.07;;
67751;SDS011;54551;51.068;5.826;2023-04-25T08:15:09;13.33;;;4.23;;
67751;SDS011;54551;51.068;5.826;2023-04-25T08:17:38;13.53;;;4.27;;
67751;SDS011;54551;51.068;5.826;2023-04-25T08:20:05;9.67;;;3.73;;
67751;SDS011;54551;51.068;5.826;2023-04-25T08:22:33;11.47;;;4.17;;
67751;SDS011;54551;51.068;5.826;2023-04-25T08:25:25;11.37;;;4.10;;
67751;SDS011;54551;51.068;5.826;2023-04-25T08:27:51;10.70;;;4.13;;
67751;SDS011;54551;51.068;5.826;2023-04-25T08:30:19;9.17;;;3.40;;
67751;SDS011;54551;51.068;5.826;2023-04-25T08:32:46;9.27;;;3.43;;
67751;SDS011;54551;51.068;5.826;2023-04-25T08:35:30;9.07;;;3.47;;
67751;SDS011;54551;51.068;5.826;2023-04-25T08:38:00;7.90;;;3.67;;
67751;SDS011;54551;51.068;5.826;2023-04-25T08:40:27;10.00;;;3.63;;
67751;SDS011;54551;51.068;5.826;2023-04-25T08:43:02;10.30;;;3.87;;
67751;SDS011;54551;51.068;5.826;2023-04-25T08:45:31;10.33;;;3.93;;
67751;SDS011;54551;51.068;5.826;2023-04-25T08:47:57;13.20;;;4.37;;
67751;SDS011;54551;51.068;5.826;2023-04-25T08:50:24;7.50;;;3.50;;
67751;SDS011;54551;51.068;5.826;2023-04-25T08:52:53;11.70;;;4.03;;
67751;SDS011;54551;51.068;5.826;2023-04-25T08:55:20;8.10;;;3.63;;
67751;SDS011;54551;51.068;5.826;2023-04-25T08:57:49;8.03;;;3.70;;
67751;SDS011;54551;51.068;5.826;2023-04-25T09:00:17;6.83;;;3.63;;
67751;SDS011;54551;51.068;5.826;2023-04-25T09:02:45;12.17;;;3.40;;
67751;SDS011;54551;51.068;5.826;2023-04-25T09:05:13;11.37;;;3.87;;
67751;SDS011;54551;51.068;5.826;2023-04-25T09:07:39;14.47;;;4.47;;
67751;SDS011;54551;51.068;5.826;2023-04-25T09:10:05;10.90;;;3.90;;
67751;SDS011;54551;51.068;5.826;2023-04-25T09:12:35;9.67;;;3.80;;
67751;SDS011;54551;51.068;5.826;2023-04-25T09:15:06;9.87;;;4.20;;
67751;SDS011;54551;51.068;5.826;2023-04-25T09:17:54;8.67;;;4.10;;
67751;SDS011;54551;51.068;5.826;2023-04-25T09:20:21;6.43;;;3.23;;
67751;SDS011;54551;51.068;5.826;2023-04-25T09:22:47;7.93;;;3.00;;
67751;SDS011;54551;51.068;5.826;2023-04-25T09:25:14;13.03;;;3.63;;
67751;SDS011;54551;51.068;5.826;2023-04-25T09:27:51;8.23;;;3.30;;
67751;SDS011;54551;51.068;5.826;2023-04-25T09:30:31;9.13;;;3.30;;
67751;SDS011;54551;51.068;5.826;2023-04-25T09:33:07;5.73;;;2.40;;
67751;SDS011;54551;51.068;5.826;2023-04-25T09:35:40;5.73;;;1.93;;
67751;SDS011;54551;51.068;5.826;2023-04-25T09:38:14;5.00;;;2.00;;
67751;SDS011;54551;51.068;5.826;2023-04-25T09:41:01;5.80;;;1.97;;
67751;SDS011;54551;51.068;5.826;2023-04-25T09:43:36;5.83;;;2.30;;
67751;SDS011;54551;51.068;5.826;2023-04-25T09:46:03;5.30;;;2.23;;
67751;SDS011;54551;51.068;5.826;2023-04-25T09:48:37;5.70;;;2.40;;
67751;SDS011;54551;51.068;5.826;2023-04-25T09:51:08;5.47;;;2.17;;
67751;SDS011;54551;51.068;5.826;2023-04-25T09:53:40;7.03;;;2.17;;
67751;SDS011;54551;51.068;5.826;2023-04-25T09:56:16;4.40;;;1.93;;
67751;SDS011;54551;51.068;5.826;2023-04-25T09:58:47;6.43;;;2.43;;
67751;SDS011;54551;51.068;5.826;2023-04-25T10:01:15;7.30;;;2.10;;
67751;SDS011;54551;51.068;5.826;2023-04-25T10:04:09;5.83;;;2.00;;
67751;SDS011;54551;51.068;5.826;2023-04-25T10:07:06;5.60;;;2.40;;
67751;SDS011;54551;51.068;5.826;2023-04-25T10:09:36;7.63;;;2.10;;
67751;SDS011;54551;51.068;5.826;2023-04-25T10:12:04;8.80;;;2.43;;
67751;SDS011;54551;51.068;5.826;2023-04-25T10:14:31;10.77;;;2.73;;
67751;SDS011;54551;51.068;5.826;2023-04-25T10:16:58;7.77;;;2.23;;
67751;SDS011;54551;51.068;5.826;2023-04-25T10:19:25;8.63;;;2.37;;
67751;SDS011;54551;51.068;5.826;2023-04-25T10:24:35;5.47;;;2.07;;
67751;SDS011;54551;51.068;5.826;2023-04-25T10:27:02;6.83;;;1.90;;
67751;SDS011;54551;51.068;5.826;2023-04-25T10:29:29;6.73;;;2.00;;
67751;SDS011;54551;51.068;5.826;2023-04-25T10:31:55;5.63;;;2.40;;
67751;SDS011;54551;51.068;5.826;2023-04-25T10:34:41;6.03;;;2.13;;
67751;SDS011;54551;51.068;5.826;2023-04-25T10:37:09;4.80;;;1.90;;
67751;SDS011;54551;51.068;5.826;2023-04-25T10:39:38;5.13;;;2.30;;
67751;SDS011;54551;51.068;5.826;2023-04-25T10:42:05;2.83;;;1.90;;
67751;SDS011;54551;51.068;5.826;2023-04-25T10:44:33;6.17;;;2.10;;
67751;SDS011;54551;51.068;5.826;2023-04-25T10:47:00;6.70;;;2.20;;
67751;SDS011;54551;51.068;5.826;2023-04-25T10:49:38;4.77;;;1.90;;
67751;SDS011;54551;51.068;5.826;2023-04-25T10:52:11;5.73;;;2.23;;
67751;SDS011;54551;51.068;5.826;2023-04-25T10:54:42;6.57;;;2.30;;
67751;SDS011;54551;51.068;5.826;2023-04-25T11:00:14;6.53;;;2.17;;
67751;SDS011;54551;51.068;5.826;2023-04-25T11:02:57;5.20;;;2.03;;
67751;SDS011;54551;51.068;5.826;2023-04-25T11:05:29;5.33;;;2.40;;
67751;SDS011;54551;51.068;5.826;2023-04-25T11:07:58;4.73;;;2.13;;
67751;SDS011;54551;51.068;5.826;2023-04-25T11:10:25;8.50;;;2.67;;
67751;SDS011;54551;51.068;5.826;2023-04-25T11:12:52;7.67;;;2.17;;
67751;SDS011;54551;51.068;5.826;2023-04-25T11:15:19;4.43;;;2.40;;
67751;SDS011;54551;51.068;5.826;2023-04-25T11:17:45;4.17;;;2.30;;
67751;SDS011;54551;51.068;5.826;2023-04-25T11:20:12;8.03;;;2.10;;
67751;SDS011;54551;51.068;5.826;2023-04-25T11:22:40;5.33;;;2.17;;
67751;SDS011;54551;51.068;5.826;2023-04-25T11:25:07;9.03;;;2.80;;
67751;SDS011;54551;51.068;5.826;2023-04-25T11:27:37;8.00;;;2.40;;
67751;SDS011;54551;51.068;5.826;2023-04-25T11:30:11;4.67;;;2.00;;
67751;SDS011;54551;51.068;5.826;2023-04-25T11:32:39;7.83;;;2.30;;
67751;SDS011;54551;51.068;5.826;2023-04-25T11:35:06;4.53;;;1.90;;
67751;SDS011;54551;51.068;5.826;2023-04-25T11:37:32;8.17;;;2.87;;
67751;SDS011;54551;51.068;5.826;2023-04-25T11:39:59;6.30;;;2.10;;
67751;SDS011;54551;51.068;5.826;2023-04-25T11:42:26;6.53;;;2.00;;
67751;SDS011;54551;51.068;5.826;2023-04-25T11:44:52;6.33;;;2.23;;
67751;SDS011;54551;51.068;5.826;2023-04-25T11:47:18;5.37;;;2.13;;
67751;SDS011;54551;51.068;5.826;2023-04-25T11:49:44;4.60;;;1.97;;
67751;SDS011;54551;51.068;5.826;2023-04-25T11:52:10;5.93;;;1.90;;
67751;SDS011;54551;51.068;5.826;2023-04-25T11:54:36;6.73;;;2.10;;
67751;SDS011;54551;51.068;5.826;2023-04-25T11:57:03;7.27;;;2.20;;
67751;SDS011;54551;51.068;5.826;2023-04-25T11:59:29;4.87;;;1.80;;
67751;SDS011;54551;51.068;5.826;2023-04-25T12:01:55;5.87;;;1.50;;
67751;SDS011;54551;51.068;5.826;2023-04-25T12:04:23;6.10;;;1.83;;
67751;SDS011;54551;51.068;5.826;2023-04-25T12:06:51;4.63;;;2.10;;
67751;SDS011;54551;51.068;5.826;2023-04-25T12:09:19;6.90;;;1.80;;
67751;SDS011;54551;51.068;5.826;2023-04-25T12:11:56;4.93;;;1.90;;
67751;SDS011;54551;51.068;5.826;2023-04-25T12:14:24;4.03;;;1.70;;
67751;SDS011;54551;51.068;5.826;2023-04-25T12:16:55;3.70;;;1.67;;
67751;SDS011;54551;51.068;5.826;2023-04-25T12:19:23;7.70;;;2.40;;
67751;SDS011;54551;51.068;5.826;2023-04-25T12:21:49;4.47;;;1.80;;
67751;SDS011;54551;51.068;5.826;2023-04-25T12:24:16;6.67;;;1.70;;
67751;SDS011;54551;51.068;5.826;2023-04-25T12:29:26;4.83;;;1.90;;
67751;SDS011;54551;51.068;5.826;2023-04-25T12:31:53;4.90;;;1.90;;
67751;SDS011;54551;51.068;5.826;2023-04-25T12:34:21;8.10;;;2.53;;
67751;SDS011;54551;51.068;5.826;2023-04-25T12:36:48;7.53;;;2.10;;
67751;SDS011;54551;51.068;5.826;2023-04-25T12:39:15;6.03;;;2.00;;
67751;SDS011;54551;51.068;5.826;2023-04-25T12:41:45;7.33;;;2.67;;
67751;SDS011;54551;51.068;5.826;2023-04-25T12:44:11;6.17;;;2.43;;
67751;SDS011;54551;51.068;5.826;2023-04-25T12:46:38;7.33;;;2.90;;
67751;SDS011;54551;51.068;5.826;2023-04-25T12:49:04;7.93;;;2.30;;
67751;SDS011;54551;51.068;5.826;2023-04-25T12:51:33;8.00;;;2.47;;
67751;SDS011;54551;51.068;5.826;2023-04-25T12:54:00;7.47;;;2.40;;
67751;SDS011;54551;51.068;5.826;2023-04-25T12:56:26;8.73;;;2.00;;
67751;SDS011;54551;51.068;5.826;2023-04-25T12:58:53;7.13;;;2.60;;
67751;SDS011;54551;51.068;5.826;2023-04-25T13:01:19;7.50;;;2.13;;
67751;SDS011;54551;51.068;5.826;2023-04-25T13:03:46;10.50;;;2.77;;
67751;SDS011;54551;51.068;5.826;2023-04-25T13:06:13;6.43;;;2.53;;
67751;SDS011;54551;51.068;5.826;2023-04-25T13:08:40;4.97;;;2.00;;
67751;SDS011;54551;51.068;5.826;2023-04-25T13:11:07;6.43;;;2.20;;
67751;SDS011;54551;51.068;5.826;2023-04-25T13:13:33;4.90;;;2.00;;
67751;SDS011;54551;51.068;5.826;2023-04-25T13:16:00;5.73;;;1.83;;
67751;SDS011;54551;51.068;5.826;2023-04-25T13:18:27;5.20;;;1.70;;
67751;SDS011;54551;51.068;5.826;2023-04-25T13:20:54;3.60;;;1.93;;
67751;SDS011;54551;51.068;5.826;2023-04-25T13:23:20;7.57;;;2.17;;
67751;SDS011;54551;51.068;5.826;2023-04-25T13:25:47;4.83;;;2.20;;
67751;SDS011;54551;51.068;5.826;2023-04-25T13:28:13;4.00;;;2.03;;
67751;SDS011;54551;51.068;5.826;2023-04-25T13:30:40;5.77;;;1.80;;
67751;SDS011;54551;51.068;5.826;2023-04-25T13:33:06;5.97;;;2.20;;
67751;SDS011;54551;51.068;5.826;2023-04-25T13:35:33;4.97;;;1.83;;
67751;SDS011;54551;51.068;5.826;2023-04-25T13:38:00;4.07;;;1.83;;
67751;SDS011;54551;51.068;5.826;2023-04-25T13:40:26;8.73;;;2.37;;
67751;SDS011;54551;51.068;5.826;2023-04-25T13:42:53;4.20;;;1.70;;
67751;SDS011;54551;51.068;5.826;2023-04-25T13:45:19;8.03;;;2.30;;
67751;SDS011;54551;51.068;5.826;2023-04-25T13:47:45;4.30;;;1.63;;
67751;SDS011;54551;51.068;5.826;2023-04-25T13:50:12;5.57;;;2.20;;
67751;SDS011;54551;51.068;5.826;2023-04-25T13:52:39;7.90;;;2.13;;
67751;SDS011;54551;51.068;5.826;2023-04-25T13:55:05;6.37;;;1.70;;
67751;SDS011;54551;51.068;5.826;2023-04-25T13:57:33;5.83;;;1.80;;
67751;SDS011;54551;51.068;5.826;2023-04-25T13:59:59;5.20;;;2.17;;
67751;SDS011;54551;51.068;5.826;2023-04-25T14:02:32;6.20;;;2.30;;
67751;SDS011;54551;51.068;5.826;2023-04-25T14:04:58;7.47;;;2.20;;
67751;SDS011;54551;51.068;5.826;2023-04-25T14:07:24;4.57;;;2.00;;
67751;SDS011;54551;51.068;5.826;2023-04-25T14:09:50;2.67;;;1.60;;
67751;SDS011;54551;51.068;5.826;2023-04-25T14:12:16;4.77;;;1.90;;
67751;SDS011;54551;51.068;5.826;2023-04-25T14:14:42;5.17;;;2.30;;
67751;SDS011;54551;51.068;5.826;2023-04-25T14:17:08;3.30;;;1.70;;
67751;SDS011;54551;51.068;5.826;2023-04-25T14:19:34;5.97;;;1.60;;
67751;SDS011;54551;51.068;5.826;2023-04-25T14:22:00;4.07;;;1.57;;
67751;SDS011;54551;51.068;5.826;2023-04-25T14:24:26;2.87;;;1.40;;
67751;SDS011;54551;51.068;5.826;2023-04-25T14:26:52;3.00;;;1.60;;
67751;SDS011;54551;51.068;5.826;2023-04-25T14:29:18;3.33;;;1.40;;
67751;SDS011;54551;51.068;5.826;2023-04-25T14:31:44;3.90;;;1.43;;
67751;SDS011;54551;51.068;5.826;2023-04-25T14:34:10;3.57;;;1.30;;
67751;SDS011;54551;51.068;5.826;2023-04-25T14:36:36;4.13;;;1.70;;
67751;SDS011;54551;51.068;5.826;2023-04-25T14:39:03;3.17;;;1.60;;
67751;SDS011;54551;51.068;5.826;2023-04-25T14:41:30;3.43;;;1.27;;
67751;SDS011;54551;51.068;5.826;2023-04-25T14:43:56;2.57;;;1.40;;
67751;SDS011;54551;51.068;5.826;2023-04-25T14:46:22;4.47;;;1.50;;
67751;SDS011;54551;51.068;5.826;2023-04-25T14:48:51;8.27;;;1.83;;
67751;SDS011;54551;51.068;5.826;2023-04-25T14:51:17;6.30;;;1.50;;
67751;SDS011;54551;51.068;5.826;2023-04-25T14:53:43;4.17;;;1.33;;
67751;SDS011;54551;51.068;5.826;2023-04-25T14:56:09;4.23;;;1.77;;
67751;SDS011;54551;51.068;5.826;2023-04-25T14:58:35;6.43;;;1.57;;
67751;SDS011;54551;51.068;5.826;2023-04-25T15:01:01;3.53;;;1.30;;
67751;SDS011;54551;51.068;5.826;2023-04-25T15:03:27;3.63;;;1.17;;